Time;durP1;ratioP1;P1;durP2;ratioP2;P2;SDS_P1;SDS_P2;PMS_P1;PMS_P2;Temp;Humidity;BMP_temperature;BMP_pressure;BME280_temperature;BME280_humidity;BME280_pressure;Samples;Min_cycle;Max_cycle;Signal;HPM_P1;HPM_P2
2023/09/27 00:00:47;;;;;;;10.50;2.17;;;;;;;24.59;47.19;99204.59;4996397;28;20179;-85
2023/09/27 00:03:12;;;;;;;6.10;1.83;;;;;;;24.60;47.05;99206.25;5013737;28;20175;-85
2023/09/27 00:05:39;;;;;;;9.67;2.67;;;;;;;24.64;47.28;99202.22;4996647;28;20186;-85
2023/09/27 00:08:06;;;;;;;4.90;1.80;;;;;;;24.66;47.06;99196.72;4995960;28;20183;-86
2023/09/27 00:10:32;;;;;;;6.80;1.80;;;;;;;24.66;47.06;99196.72;4996385;28;20676;-85
2023/09/27 00:12:57;;;;;;;7.27;2.30;;;;;;;24.69;47.14;99191.84;5013488;28;20218;-86
2023/09/27 00:15:23;;;;;;;3.80;1.60;;;;;;;24.69;47.19;99191.00;5013621;28;20171;-85
2023/09/27 00:17:49;;;;;;;5.37;1.63;;;;;;;24.72;47.19;99194.19;4996009;28;20617;-85
2023/09/27 00:20:19;;;;;;;4.23;1.90;;;;;;;24.74;47.20;99196.69;5013543;28;20244;-86
2023/09/27 00:22:45;;;;;;;5.63;1.97;;;;;;;24.78;46.96;99196.22;4996285;28;20676;-85
2023/09/27 00:25:10;;;;;;;4.77;1.97;;;;;;;24.79;46.73;99192.53;4996526;28;20222;-86
2023/09/27 00:27:39;;;;;;;10.10;2.20;;;;;;;24.84;46.66;99182.13;4996118;28;20249;-86
2023/09/27 00:30:07;;;;;;;6.93;2.03;;;;;;;24.88;46.28;99185.31;5013803;28;20171;-86
2023/09/27 00:32:33;;;;;;;4.80;2.03;;;;;;;24.88;46.23;99180.81;4995924;28;20247;-86
2023/09/27 00:34:59;;;;;;;8.60;2.17;;;;;;;24.87;46.10;99180.94;4995448;28;20229;-85
2023/09/27 00:37:25;;;;;;;5.37;1.63;;;;;;;24.83;45.98;99177.78;5013369;28;20160;-85
2023/09/27 00:39:50;;;;;;;5.17;2.00;;;;;;;24.84;46.01;99176.75;5013356;28;20203;-85
2023/09/27 00:42:16;;;;;;;7.73;2.13;;;;;;;24.80;46.21;99178.13;5013217;28;20246;-85
2023/09/27 00:44:41;;;;;;;5.80;2.07;;;;;;;24.79;46.07;99175.63;5013309;28;20596;-85
2023/09/27 00:47:07;;;;;;;6.37;2.10;;;;;;;24.74;46.18;99177.91;5014234;28;20213;-85
2023/09/27 00:49:33;;;;;;;5.27;2.03;;;;;;;24.67;46.10;99177.78;4999700;28;20252;-85
2023/09/27 00:51:59;;;;;;;5.97;2.13;;;;;;;24.62;46.34;99171.25;5017838;28;20683;-86
2023/09/27 00:54:25;;;;;;;4.40;1.80;;;;;;;24.63;46.41;99167.56;5030575;28;20260;-86
2023/09/27 00:56:52;;;;;;;8.67;1.93;;;;;;;24.59;46.45;99160.84;5018909;28;20186;-85
2023/09/27 00:59:18;;;;;;;7.40;2.00;;;;;;;24.53;46.60;99173.06;5019212;28;20190;-86
2023/09/27 01:01:46;;;;;;;8.13;2.00;;;;;;;24.50;46.92;99168.09;5037482;28;20638;-86
2023/09/27 01:04:13;;;;;;;7.10;2.57;;;;;;;24.38;47.10;99172.06;5019007;28;20256;-85
2023/09/27 01:06:40;;;;;;;7.23;2.27;;;;;;;24.29;47.37;99165.06;5019286;28;20201;-85
2023/09/27 01:09:05;;;;;;;7.40;1.57;;;;;;;24.19;47.69;99156.31;5036691;28;20213;-85
2023/09/27 01:11:32;;;;;;;4.87;1.90;;;;;;;24.23;47.66;99160.34;5019459;28;20261;-85
2023/09/27 01:13:58;;;;;;;6.07;2.13;;;;;;;24.22;47.64;99153.31;5036473;28;20746;-85
2023/09/27 01:16:23;;;;;;;3.70;1.83;;;;;;;24.22;47.34;99156.00;5036163;28;20231;-85
2023/09/27 01:18:49;;;;;;;8.27;1.80;;;;;;;24.19;47.70;99161.69;5019363;28;20539;-85
2023/09/27 01:21:19;;;;;;;7.63;1.90;;;;;;;24.13;48.20;99159.69;5019396;28;20189;-85
2023/09/27 01:23:48;;;;;;;7.23;1.77;;;;;;;24.10;48.30;99163.53;5036424;28;20564;-85
2023/09/27 01:26:16;;;;;;;6.30;2.00;;;;;;;24.14;47.99;99158.66;5036227;28;20194;-85
2023/09/27 01:28:44;;;;;;;5.30;2.07;;;;;;;24.16;48.24;99151.31;5018624;28;20208;-85
2023/09/27 01:31:09;;;;;;;7.70;2.73;;;;;;;24.08;48.42;99160.16;5036266;28;20655;-85
2023/09/27 01:33:35;;;;;;;8.67;2.60;;;;;;;24.02;48.54;99154.59;5036127;28;20186;-86
2023/09/27 01:36:02;;;;;;;8.20;2.33;;;;;;;23.96;48.62;99164.13;5036505;28;20170;-86
2023/09/27 01:38:30;;;;;;;3.60;1.83;;;;;;;23.89;48.83;99164.97;5035940;28;20415;-85
2023/09/27 01:40:55;;;;;;;7.07;1.90;;;;;;;23.93;48.60;99159.09;5036473;28;20256;-86
2023/09/27 01:43:21;;;;;;;5.67;2.57;;;;;;;23.94;49.28;99162.63;5036120;28;20631;-85
2023/09/27 01:45:46;;;;;;;4.53;1.90;;;;;;;23.96;48.97;99165.97;5035582;28;20547;-86
2023/09/27 01:48:12;;;;;;;6.73;1.73;;;;;;;23.97;48.67;99162.31;5035891;28;20171;-85
2023/09/27 01:50:38;;;;;;;7.87;2.20;;;;;;;24.00;49.02;99152.13;5035769;28;20241;-85
2023/09/27 01:53:04;;;;;;;5.57;2.17;;;;;;;24.03;48.45;99162.47;5016037;28;20645;-85
2023/09/27 01:55:29;;;;;;;10.43;2.23;;;;;;;23.97;48.70;99162.31;5032061;28;20261;-85
2023/09/27 01:57:55;;;;;;;9.03;2.17;;;;;;;24.00;48.54;99170.00;5036299;28;20266;-85
2023/09/27 02:00:21;;;;;;;8.10;2.07;;;;;;;24.00;48.62;99162.81;5034765;28;20182;-86
2023/09/27 02:02:53;;;;;;;7.97;1.97;;;;;;;23.97;48.70;99164.97;5035541;28;20174;-86
2023/09/27 02:05:19;;;;;;;6.70;2.30;;;;;;;23.88;48.72;99168.63;5035917;28;20639;-85
2023/09/27 02:07:44;;;;;;;7.53;2.33;;;;;;;23.76;49.22;99165.44;5017769;28;20229;-85
2023/09/27 02:10:11;;;;;;;5.03;2.07;;;;;;;23.62;49.62;99164.22;5035643;28;20253;-85
2023/09/27 02:12:38;;;;;;;8.43;2.63;;;;;;;23.51;49.88;99161.84;5035257;28;20699;-85
2023/09/27 02:15:08;;;;;;;4.93;2.00;;;;;;;23.45;50.44;99167.00;5018116;28;20210;-85
2023/09/27 02:17:35;;;;;;;8.00;2.20;;;;;;;23.47;50.44;99162.31;5035269;28;20174;-85
2023/09/27 02:20:05;;;;;;;7.73;2.30;;;;;;;23.39;50.46;99163.13;5035480;28;20178;-85
2023/09/27 02:22:30;;;;;;;19.60;3.13;;;;;;;23.44;50.71;99170.66;5035026;28;20171;-85
2023/09/27 02:24:57;;;;;;;8.57;2.27;;;;;;;23.44;50.70;99176.03;5017737;28;20182;-85
2023/09/27 02:27:23;;;;;;;5.57;2.40;;;;;;;23.32;50.97;99167.44;5035219;28;20194;-85
2023/09/27 02:29:48;;;;;;;10.47;2.37;;;;;;;23.41;50.67;99166.47;5018246;28;20186;-86
2023/09/27 02:32:14;;;;;;;5.40;2.87;;;;;;;23.54;50.47;99166.03;5035359;28;20261;-85
2023/09/27 02:34:39;;;;;;;6.27;2.50;;;;;;;23.54;50.26;99171.38;5034415;28;20224;-85
2023/09/27 02:37:05;;;;;;;9.57;2.30;;;;;;;23.52;50.11;99171.53;5017664;28;20519;-85
2023/09/27 02:39:30;;;;;;;7.70;2.10;;;;;;;23.53;50.07;99167.84;5035027;28;20182;-86
2023/09/27 02:41:57;;;;;;;7.83;2.43;;;;;;;23.61;49.58;99173.25;5017330;28;20174;-86
2023/09/27 02:44:23;;;;;;;5.57;2.77;;;;;;;23.65;49.29;99179.13;5017557;28;20575;-86
2023/09/27 02:46:51;;;;;;;7.47;2.57;;;;;;;23.76;49.26;99178.81;5018225;28;20198;-86
2023/09/27 02:49:16;;;;;;;7.93;2.63;;;;;;;23.73;48.95;99179.97;5016848;28;20198;-85
2023/09/27 02:51:41;;;;;;;9.10;2.33;;;;;;;23.76;48.88;99178.81;5034653;28;20195;-85
2023/09/27 02:54:07;;;;;;;6.90;2.10;;;;;;;23.83;48.90;99169.13;5034851;28;20194;-85
2023/09/27 02:56:32;;;;;;;8.33;2.20;;;;;;;23.78;48.61;99176.81;5034989;28;20258;-86
2023/09/27 02:58:58;;;;;;;10.97;3.03;;;;;;;23.73;48.69;99171.94;5017558;28;20184;-86
2023/09/27 03:01:24;;;;;;;6.90;2.53;;;;;;;23.69;48.77;99175.94;5017070;28;20201;-85
2023/09/27 03:03:51;;;;;;;4.30;2.70;;;;;;;23.69;48.54;99169.75;5017163;28;20552;-86
2023/09/27 03:06:17;;;;;;;6.13;2.67;;;;;;;23.73;48.67;99171.13;5034155;28;20217;-86
2023/09/27 03:08:45;;;;;;;4.80;1.47;;;;;;;23.75;48.48;99164.59;5017092;28;20633;-86
2023/09/27 03:11:12;;;;;;;8.03;2.07;;;;;;;23.75;48.50;99161.06;5017785;28;20178;-85
2023/09/27 03:13:38;;;;;;;6.37;2.03;;;;;;;23.76;48.53;99170.78;5034518;28;20186;-86
2023/09/27 03:16:04;;;;;;;3.73;1.70;;;;;;;23.74;48.10;99168.25;5016917;28;20171;-86
2023/09/27 03:18:31;;;;;;;6.17;2.00;;;;;;;23.74;48.27;99176.28;5016385;28;20178;-86
2023/09/27 03:20:58;;;;;;;5.43;2.63;;;;;;;23.77;48.41;99172.44;5016804;28;20181;-86
2023/09/27 03:23:23;;;;;;;12.07;2.50;;;;;;;23.79;48.31;99173.16;5016774;28;20194;-86
2023/09/27 03:25:49;;;;;;;8.10;2.10;;;;;;;23.76;48.17;99177.00;5033438;28;20229;-86
2023/09/27 03:28:15;;;;;;;9.00;2.57;;;;;;;23.77;47.95;99184.00;5034120;28;20644;-86
2023/09/27 03:30:40;;;;;;;4.27;1.90;;;;;;;23.70;48.66;99180.31;5016559;28;20312;-86
2023/09/27 03:33:06;;;;;;;4.57;2.03;;;;;;;23.76;48.35;99181.50;5016712;28;20195;-86
2023/09/27 03:35:31;;;;;;;9.67;2.27;;;;;;;23.77;48.16;99178.66;5033939;28;20170;-86
2023/09/27 03:37:57;;;;;;;5.40;2.00;;;;;;;23.71;48.46;99190.03;5034148;28;20174;-85
2023/09/27 03:40:23;;;;;;;8.80;2.07;;;;;;;23.80;47.72;99185.50;5016287;28;20261;-86
2023/09/27 03:42:49;;;;;;;13.10;2.87;;;;;;;23.76;47.83;99185.03;5033672;28;20631;-86
2023/09/27 03:45:15;;;;;;;4.60;1.83;;;;;;;23.80;47.97;99182.84;5034401;28;20181;-86
2023/09/27 03:47:44;;;;;;;7.93;2.10;;;;;;;23.82;47.61;99186.19;5033978;28;20191;-86
2023/09/27 03:50:10;;;;;;;3.57;1.53;;;;;;;23.80;47.73;99186.34;5033787;28;20643;-86
2023/09/27 03:52:35;;;;;;;5.37;2.10;;;;;;;23.77;47.72;99189.34;5033675;28;20172;-86
2023/09/27 03:55:01;;;;;;;5.90;1.83;;;;;;;23.76;47.67;99187.69;5016134;28;20244;-86
2023/09/27 03:57:26;;;;;;;4.03;1.97;;;;;;;23.80;47.69;99185.50;5016227;28;20248;-86
2023/09/27 03:59:52;;;;;;;12.73;2.33;;;;;;;23.75;47.58;99194.03;5016205;28;20210;-86
2023/09/27 04:02:17;;;;;;;10.57;2.10;;;;;;;23.69;47.56;99189.31;5016178;28;20635;-86
2023/09/27 04:04:43;;;;;;;4.10;1.80;;;;;;;23.72;47.94;99190.84;5016179;28;20598;-86
2023/09/27 04:07:09;;;;;;;7.80;2.37;;;;;;;23.64;47.66;99183.63;5033466;28;20194;-86
2023/09/27 04:09:34;;;;;;;6.10;2.33;;;;;;;23.60;47.76;99184.97;5016038;28;20174;-85
2023/09/27 04:12:00;;;;;;;6.10;1.90;;;;;;;23.55;47.95;99173.91;5031715;28;20268;-85
2023/09/27 04:14:28;;;;;;;4.60;2.27;;;;;;;23.54;47.87;99188.28;5014324;28;20232;-85
2023/09/27 04:16:59;;;;;;;9.63;2.67;;;;;;;23.38;48.12;99185.53;5014239;28;20239;-86
2023/09/27 04:19:25;;;;;;;5.73;1.77;;;;;;;23.34;48.39;99189.50;5014366;28;20197;-85
2023/09/27 04:21:50;;;;;;;14.60;2.23;;;;;;;23.40;48.07;99190.72;5014453;28;20563;-85
2023/09/27 04:24:16;;;;;;;9.83;1.70;;;;;;;23.45;47.83;99188.41;5032264;28;20237;-85
2023/09/27 04:26:41;;;;;;;8.23;1.90;;;;;;;23.44;47.92;99198.28;5032435;28;20664;-85
2023/09/27 04:29:07;;;;;;;7.73;2.20;;;;;;;23.42;47.86;99192.25;5033051;28;20226;-86
2023/09/27 04:31:34;;;;;;;3.43;1.70;;;;;;;23.36;48.43;99195.53;5032818;28;20185;-85
2023/09/27 04:33:59;;;;;;;7.87;2.23;;;;;;;23.40;48.25;99191.53;5033114;28;20206;-85
2023/09/27 04:36:25;;;;;;;8.63;1.67;;;;;;;23.45;48.52;99202.63;5032875;28;20598;-85
2023/09/27 04:38:50;;;;;;;4.83;1.70;;;;;;;23.44;48.57;99198.28;5033076;28;20186;-86
2023/09/27 04:41:20;;;;;;;5.10;2.37;;;;;;;23.44;48.77;99203.63;5033007;28;20256;-86
2023/09/27 04:43:46;;;;;;;6.97;1.97;;;;;;;23.45;48.64;99207.97;5032336;28;20633;-86
2023/09/27 04:46:13;;;;;;;7.83;1.90;;;;;;;23.45;48.95;99199.97;5015499;28;20209;-85
2023/09/27 04:48:39;;;;;;;6.30;1.60;;;;;;;23.49;48.69;99195.09;5032803;28;20317;-85
2023/09/27 04:51:04;;;;;;;4.53;2.00;;;;;;;23.54;48.61;99206.16;5032846;28;20679;-85
2023/09/27 04:53:31;;;;;;;4.57;2.07;;;;;;;23.48;48.95;99212.16;5033014;28;20247;-86
2023/09/27 04:55:57;;;;;;;3.90;1.73;;;;;;;23.57;48.84;99209.38;5032704;28;20579;-86
2023/09/27 04:58:22;;;;;;;15.53;2.37;;;;;;;23.57;48.91;99209.38;5015038;28;20209;-85
2023/09/27 05:00:48;;;;;;;7.13;1.83;;;;;;;23.54;48.73;99208.84;5016353;28;20186;-85
2023/09/27 05:03:13;;;;;;;6.13;3.03;;;;;;;23.58;48.76;99205.69;5032394;28;20676;-85
2023/09/27 05:05:38;;;;;;;7.53;2.50;;;;;;;23.64;48.52;99214.91;5032835;28;20183;-85
2023/09/27 05:08:04;;;;;;;13.27;2.43;;;;;;;23.53;49.45;99212.53;5032999;28;20670;-85
2023/09/27 05:10:30;;;;;;;5.33;2.40;;;;;;;23.55;48.78;99211.38;5015229;28;20182;-86
2023/09/27 05:12:55;;;;;;;9.70;2.27;;;;;;;23.62;48.79;99206.19;5032725;28;20182;-86
2023/09/27 05:15:20;;;;;;;9.13;2.20;;;;;;;23.71;48.46;99211.44;5032521;28;20182;-86
2023/09/27 05:17:46;;;;;;;5.77;2.40;;;;;;;23.92;48.37;99212.84;5032705;28;20528;-85
2023/09/27 05:20:12;;;;;;;9.37;2.23;;;;;;;24.07;47.41;99211.19;5015209;28;20186;-85
2023/09/27 05:22:38;;;;;;;5.73;2.07;;;;;;;24.08;47.76;99215.56;5015828;28;20174;-86
2023/09/27 05:25:06;;;;;;;11.47;2.23;;;;;;;24.12;47.80;99214.25;5014680;28;20186;-87
2023/09/27 05:27:31;;;;;;;7.03;1.80;;;;;;;24.27;46.90;99218.78;5032826;28;20195;-85
2023/09/27 05:29:57;;;;;;;9.53;2.20;;;;;;;24.44;46.75;99220.50;5032507;28;20187;-86
2023/09/27 05:32:23;;;;;;;8.07;2.00;;;;;;;24.60;46.09;99225.03;5015203;28;20174;-85
2023/09/27 05:34:50;;;;;;;8.70;2.13;;;;;;;24.71;45.91;99224.66;5017616;28;20186;-85
2023/09/27 05:37:15;;;;;;;7.30;2.23;;;;;;;25.09;45.11;99222.31;5018421;28;20174;-85
2023/09/27 05:39:41;;;;;;;7.00;2.53;;;;;;;25.49;44.09;99228.47;5019129;28;20170;-85
2023/09/27 05:42:06;;;;;;;11.00;2.00;;;;;;;25.67;43.69;99225.56;5018488;28;20670;-86
2023/09/27 05:44:32;;;;;;;5.73;2.13;;;;;;;25.69;43.84;99230.72;5018625;28;20182;-87
2023/09/27 05:46:57;;;;;;;5.97;2.47;;;;;;;25.65;44.00;99235.63;5035874;28;20198;-86
2023/09/27 05:49:24;;;;;;;8.13;2.20;;;;;;;25.59;43.99;99239.00;5035923;28;20184;-86
2023/09/27 05:51:50;;;;;;;5.60;1.80;;;;;;;25.76;43.57;99243.28;5035634;28;20170;-86
2023/09/27 05:54:15;;;;;;;4.77;1.57;;;;;;;25.93;43.31;99236.00;5035848;28;20191;-86
2023/09/27 05:56:43;;;;;;;6.73;1.80;;;;;;;26.23;42.69;99232.53;5018144;28;20185;-85
2023/09/27 05:59:08;;;;;;;9.20;2.13;;;;;;;26.76;41.42;99234.28;5035882;28;20274;-85
2023/09/27 06:01:35;;;;;;;4.93;1.67;;;;;;;27.56;39.76;99232.72;5020015;28;20182;-85
2023/09/27 06:04:02;;;;;;;5.10;2.10;;;;;;;28.30;37.91;99236.94;5017947;28;20724;-87
2023/09/27 06:06:27;;;;;;;3.77;1.80;;;;;;;29.08;36.88;99230.66;5035393;28;20222;-85
2023/09/27 06:08:52;;;;;;;4.90;1.80;;;;;;;29.88;35.48;99240.94;5017845;28;20221;-86
2023/09/27 06:11:18;;;;;;;7.40;2.23;;;;;;;30.15;34.90;99234.63;5036858;28;20252;-87
2023/09/27 06:13:44;;;;;;;4.17;2.30;;;;;;;30.52;33.88;99234.13;5035316;28;20542;-87
2023/09/27 06:16:15;;;;;;;3.93;1.97;;;;;;;31.14;33.04;99236.47;5017804;28;20166;-86
2023/09/27 06:18:41;;;;;;;5.13;1.70;;;;;;;31.48;32.19;99243.53;5017200;28;20182;-87
2023/09/27 06:21:06;;;;;;;9.40;2.45;;;;;;;31.82;32.57;99242.38;5034878;28;20174;-86
2023/09/27 06:23:31;;;;;;;8.80;1.67;;;;;;;32.43;31.25;99246.31;5017612;28;20178;-86
2023/09/27 06:25:57;;;;;;;7.03;2.45;;;;;;;33.10;30.12;99240.22;5016911;28;20178;-86
2023/09/27 06:28:22;;;;;;;7.75;1.80;;;;;;;33.11;29.97;99235.63;5034743;28;20198;-86
2023/09/27 06:30:48;;;;;;;5.63;1.58;;;;;;;32.81;30.37;99244.38;5035037;28;20620;-86
2023/09/27 06:33:13;;;;;;;9.30;1.98;;;;;;;32.88;30.21;99238.91;5017252;28;20240;-87
2023/09/27 06:35:39;;;;;;;7.38;2.25;;;;;;;32.92;30.29;99245.56;5035007;28;20182;-87
2023/09/27 06:38:05;;;;;;;7.05;2.17;;;;;;;33.21;30.03;99238.66;5034547;28;20175;-87
2023/09/27 06:40:31;;;;;;;4.93;2.03;;;;;;;33.41;29.25;99250.97;5035259;28;20224;-87
2023/09/27 06:42:57;;;;;;;8.73;1.80;;;;;;;33.74;29.37;99242.53;5034580;28;20240;-88
2023/09/27 06:45:22;;;;;;;7.20;1.73;;;;;;;34.13;29.13;99252.09;5017781;28;20654;-88
2023/09/27 06:47:48;;;;;;;4.30;1.90;;;;;;;34.03;28.35;99259.13;5017423;28;20224;-88
2023/09/27 06:50:15;;;;;;;8.60;1.85;;;;;;;34.14;28.97;99252.94;5017387;28;20667;-89
2023/09/27 06:52:40;;;;;;;6.47;1.98;;;;;;;34.32;28.70;99245.59;5034842;28;20186;-87
2023/09/27 06:55:16;;;;;;;6.35;1.70;;;;;;;33.94;28.53;99255.88;5017732;28;20569;-88
2023/09/27 06:57:42;;;;;;;7.63;2.17;;;;;;;33.64;28.58;99249.53;5016450;28;20185;-88
2023/09/27 07:00:24;;;;;;;4.30;1.63;;;;;;;33.10;29.10;99256.50;5017188;28;20182;-88
2023/09/27 07:02:50;;;;;;;6.05;2.15;;;;;;;32.54;30.51;99261.09;5017104;28;20190;-88
2023/09/27 07:05:16;;;;;;;6.45;1.77;;;;;;;32.26;30.25;99257.88;5017017;28;20524;-88
2023/09/27 07:07:42;;;;;;;6.32;2.30;;;;;;;31.94;30.83;99259.66;5016991;28;20194;-88
2023/09/27 07:10:08;;;;;;;8.07;2.38;;;;;;;31.43;31.51;99262.25;5016905;28;20185;-88
2023/09/27 07:12:37;;;;;;;6.22;2.30;;;;;;;31.17;32.71;99268.53;5034675;28;20647;-87
2023/09/27 07:15:09;;;;;;;4.85;1.98;;;;;;;30.81;32.41;99263.53;5016912;28;20255;-88
2023/09/27 07:17:36;;;;;;;9.27;1.90;;;;;;;30.40;33.13;99266.34;5017449;28;20181;-87
2023/09/27 07:20:09;;;;;;;6.47;2.10;;;;;;;30.09;33.41;99267.88;5034184;28;20227;-88
2023/09/27 07:22:36;;;;;;;11.32;2.25;;;;;;;29.69;34.05;99267.66;5016859;28;20174;-87
2023/09/27 07:25:03;;;;;;;3.72;1.70;;;;;;;29.23;34.57;99270.06;5016512;28;20547;-88
2023/09/27 07:27:29;;;;;;;7.25;1.98;;;;;;;29.03;35.47;99270.91;5034066;28;20202;-88
2023/09/27 07:29:54;;;;;;;10.18;1.85;;;;;;;28.82;35.60;99271.75;5016922;28;20170;-88
2023/09/27 07:32:19;;;;;;;7.53;2.03;;;;;;;28.68;36.12;99277.22;5033615;28;20186;-87
2023/09/27 07:34:45;;;;;;;10.15;2.17;;;;;;;28.55;36.81;99273.34;5016811;28;20266;-87
2023/09/27 07:37:11;;;;;;;6.90;2.10;;;;;;;28.48;36.94;99274.28;5033541;28;20531;-87
2023/09/27 07:39:37;;;;;;;3.20;1.48;;;;;;;28.49;36.90;99274.09;5016840;28;20240;-87
2023/09/27 07:42:03;;;;;;;3.88;1.60;;;;;;;28.48;36.79;99277.84;5033901;28;20236;-87
2023/09/27 07:44:32;;;;;;;7.35;1.90;;;;;;;28.44;36.69;99281.91;5016261;28;20186;-87
2023/09/27 07:46:57;;;;;;;7.78;1.75;;;;;;;28.41;36.69;99278.75;5016324;28;20194;-87
2023/09/27 07:49:23;;;;;;;3.60;1.80;;;;;;;28.25;37.14;99282.53;5015913;28;20201;-87
2023/09/27 07:51:48;;;;;;;9.90;1.83;;;;;;;28.33;37.08;99282.41;5016582;28;20213;-87
2023/09/27 07:54:14;;;;;;;6.13;2.03;;;;;;;28.34;37.16;99284.09;5033380;28;20245;-87
2023/09/27 07:56:40;;;;;;;4.03;1.87;;;;;;;28.30;37.12;99280.09;5015307;28;20217;-88
2023/09/27 07:59:06;;;;;;;3.47;1.45;;;;;;;28.17;37.85;99279.94;5016141;28;20166;-88
2023/09/27 08:01:33;;;;;;;5.65;1.98;;;;;;;28.20;37.05;99282.25;5033432;28;20184;-87
2023/09/27 08:04:06;;;;;;;5.80;1.88;;;;;;;28.26;37.64;99284.22;5016602;28;20506;-87
2023/09/27 08:06:33;;;;;;;8.35;1.95;;;;;;;28.30;37.27;99271.19;5015830;28;20206;-87
2023/09/27 08:08:59;;;;;;;8.10;2.15;;;;;;;28.27;37.00;99283.19;5033301;28;20244;-87
2023/09/27 08:11:25;;;;;;;6.45;1.65;;;;;;;28.23;37.00;99281.88;5032677;28;20247;-87
2023/09/27 08:13:50;;;;;;;7.88;2.25;;;;;;;28.22;37.11;99288.31;5033403;28;20264;-87
2023/09/27 08:16:16;;;;;;;9.52;2.03;;;;;;;28.29;37.03;99294.63;5033257;28;20523;-86
2023/09/27 08:18:42;;;;;;;5.18;2.45;;;;;;;28.26;37.49;99292.28;5016134;28;20510;-87
2023/09/27 08:21:08;;;;;;;5.85;2.17;;;;;;;28.27;37.45;99285.88;5033144;28;20246;-87
2023/09/27 08:23:34;;;;;;;5.85;1.90;;;;;;;28.34;37.82;99281.41;5015699;28;20194;-88
2023/09/27 08:26:00;;;;;;;8.23;2.17;;;;;;;28.35;37.40;99277.69;5015392;28;20186;-87
2023/09/27 08:28:25;;;;;;;6.72;2.13;;;;;;;28.44;37.37;99278.38;5033089;28;20213;-87
2023/09/27 08:30:51;;;;;;;6.47;2.28;;;;;;;28.48;37.26;99275.13;5032685;28;20174;-87
2023/09/27 08:33:16;;;;;;;7.05;2.15;;;;;;;28.55;37.10;99273.34;5015484;28;20524;-87
2023/09/27 08:35:42;;;;;;;6.50;2.00;;;;;;;28.64;37.57;99272.19;5033161;28;20186;-87
2023/09/27 08:38:08;;;;;;;6.60;2.42;;;;;;;28.64;36.98;99272.19;5015648;28;20174;-87
2023/09/27 08:40:34;;;;;;;7.72;1.92;;;;;;;28.70;37.15;99264.34;5032745;28;20266;-87
2023/09/27 08:43:00;;;;;;;12.75;2.00;;;;;;;28.80;36.93;99265.69;5032832;28;20175;-88
2023/09/27 08:45:27;;;;;;;6.72;2.45;;;;;;;28.90;36.84;99260.00;5015769;28;20182;-87
2023/09/27 08:47:54;;;;;;;6.85;1.92;;;;;;;28.90;37.34;99270.78;5032783;28;20206;-87
2023/09/27 08:50:20;;;;;;;5.85;2.03;;;;;;;29.02;37.22;99266.53;5032568;28;20193;-87
2023/09/27 08:52:50;;;;;;;5.45;1.42;;;;;;;29.13;36.93;99271.41;5032132;28;20175;-87
2023/09/27 08:55:17;;;;;;;7.68;2.30;;;;;;;29.09;37.45;99257.44;5015277;28;20217;-87
2023/09/27 08:57:48;;;;;;;5.63;1.90;;;;;;;29.19;37.47;99259.81;5032679;28;20177;-87
2023/09/27 09:00:15;;;;;;;7.75;2.22;;;;;;;29.32;36.64;99259.94;5032570;28;20182;-87
2023/09/27 09:02:46;;;;;;;11.55;2.05;;;;;;;29.46;36.26;99256.28;5015193;28;20233;-87
2023/09/27 09:05:12;;;;;;;5.45;1.95;;;;;;;29.51;36.15;99258.38;5015399;28;20162;-88
2023/09/27 09:07:40;;;;;;;8.50;2.13;;;;;;;29.46;36.59;99258.16;5015095;28;20202;-87
2023/09/27 09:10:09;;;;;;;9.05;1.98;;;;;;;29.57;36.82;99260.31;5037145;28;20185;-87
2023/09/27 09:12:37;;;;;;;6.68;2.28;;;;;;;29.62;37.01;99250.56;5001459;28;20179;-86
2023/09/27 09:15:05;;;;;;;7.45;2.10;;;;;;;29.66;37.23;99254.56;5019489;28;20182;-87
2023/09/27 09:17:34;;;;;;;10.77;2.30;;;;;;;29.75;36.69;99250.66;5018411;28;20178;-87
2023/09/27 09:20:15;;;;;;;7.68;1.95;;;;;;;29.91;36.25;99245.97;5019237;28;20178;-87
2023/09/27 09:22:45;;;;;;;3.67;1.90;;;;;;;29.97;37.19;99247.88;5019285;28;20181;-87
2023/09/27 09:25:11;;;;;;;9.88;2.63;;;;;;;29.82;36.62;99258.84;5019047;28;20328;-88
2023/09/27 09:27:37;;;;;;;4.90;1.58;;;;;;;29.91;36.36;99254.06;5036090;28;20667;-87
2023/09/27 09:30:06;;;;;;;5.20;2.35;;;;;;;29.92;36.58;99244.94;5035945;28;20182;-87
2023/09/27 09:32:32;;;;;;;4.68;1.75;;;;;;;30.15;36.69;99240.03;5036264;28;20712;-87
2023/09/27 09:34:57;;;;;;;9.35;2.47;;;;;;;30.41;36.91;99234.72;5018633;28;20182;-87
2023/09/27 09:37:30;;;;;;;6.63;2.20;;;;;;;30.66;35.29;99238.50;5018850;28;20166;-87
2023/09/27 09:40:14;;;;;;;9.73;2.13;;;;;;;30.90;34.64;99237.91;5035544;28;20183;-87
2023/09/27 09:42:42;;;;;;;7.38;2.17;;;;;;;31.23;34.33;99234.38;5035862;28;20224;-87
2023/09/27 09:45:12;;;;;;;6.22;2.13;;;;;;;31.36;33.29;99239.78;5018819;28;20183;-88
2023/09/27 09:47:39;;;;;;;18.33;2.67;;;;;;;31.48;33.08;99246.22;5020279;28;20203;-88
2023/09/27 09:50:14;;;;;;;5.25;2.05;;;;;;;31.30;33.33;99237.91;5015907;28;20636;-87
2023/09/27 09:52:39;;;;;;;6.55;1.85;;;;;;;31.25;34.18;99230.41;5019769;28;20169;-87
2023/09/27 09:55:08;;;;;;;9.85;1.85;;;;;;;31.31;33.28;99231.44;5036163;28;20573;-88
2023/09/27 09:57:40;;;;;;;4.38;1.65;;;;;;;31.66;33.17;99218.47;5035765;28;20186;-88
2023/09/27 10:00:12;;;;;;;6.35;1.63;;;;;;;31.41;33.70;99226.41;5035274;28;20186;-87
2023/09/27 10:02:49;;;;;;;7.57;1.90;;;;;;;31.52;32.77;99225.81;5018204;28;20178;-87
2023/09/27 10:05:19;;;;;;;8.85;2.13;;;;;;;31.63;32.33;99225.13;5039440;28;20178;-87
2023/09/27 10:07:48;;;;;;;6.40;1.80;;;;;;;31.64;32.92;99218.69;5017194;28;20617;-88
2023/09/27 10:10:20;;;;;;;7.40;2.35;;;;;;;31.56;33.61;99219.75;5016879;28;20591;-88
2023/09/27 10:12:48;;;;;;;4.18;1.73;;;;;;;31.61;33.48;99210.97;5017398;28;20174;-86
2023/09/27 10:15:20;;;;;;;6.13;1.83;;;;;;;31.55;33.05;99209.94;5035217;28;20691;-88
2023/09/27 10:17:46;;;;;;;3.40;1.70;;;;;;;31.68;33.45;99200.97;5034631;28;20233;-91
2023/09/27 10:20:24;;;;;;;7.88;1.95;;;;;;;31.82;32.32;99199.84;5034456;28;20174;-87
2023/09/27 10:22:52;;;;;;;9.52;1.98;;;;;;;31.95;32.53;99191.66;5035570;28;20788;-89
2023/09/27 10:25:23;;;;;;;6.82;1.90;;;;;;;31.99;32.50;99187.50;5035676;28;20556;-89
2023/09/27 10:28:01;;;;;;;3.42;1.63;;;;;;;31.94;32.08;99184.56;5035151;28;20733;-88
2023/09/27 10:30:48;;;;;;;7.40;2.13;;;;;;;31.98;32.43;99185.78;5035426;28;20185;-87
2023/09/27 10:33:16;;;;;;;4.05;1.77;;;;;;;31.98;32.34;99185.78;5034926;28;20212;-88
2023/09/27 10:35:43;;;;;;;4.60;1.70;;;;;;;31.76;32.11;99170.88;5034775;28;20257;-87
2023/09/27 10:38:10;;;;;;;5.65;2.05;;;;;;;31.86;32.82;99159.59;5035095;28;20174;-87
2023/09/27 10:40:46;;;;;;;7.80;1.80;;;;;;;31.71;33.45;99167.97;5017070;28;20526;-88
2023/09/27 10:43:38;;;;;;;6.57;1.45;;;;;;;31.68;32.39;99168.44;5034801;28;20251;-87
2023/09/27 10:46:04;;;;;;;4.53;1.75;;;;;;;31.79;32.73;99164.22;5014450;28;20201;-87
2023/09/27 10:48:37;;;;;;;6.88;1.58;;;;;;;31.73;32.41;99167.78;5017379;28;20186;-87
2023/09/27 10:51:03;;;;;;;4.38;1.55;;;;;;;31.84;31.93;99156.25;5017284;28;20174;-87
2023/09/27 10:53:32;;;;;;;10.13;1.55;;;;;;;31.84;32.16;99154.34;5034704;28;20559;-88
2023/09/27 10:55:58;;;;;;;3.95;1.35;;;;;;;31.66;32.27;99158.84;5034883;28;20179;-88
2023/09/27 10:58:25;;;;;;;7.28;1.52;;;;;;;31.30;32.91;99159.34;5034629;28;20217;-87
2023/09/27 11:00:55;;;;;;;3.22;1.23;;;;;;;31.39;33.50;99136.41;5017227;28;20186;-89
2023/09/27 11:03:21;;;;;;;7.38;1.73;;;;;;;31.66;32.37;99148.81;5017110;28;20210;-88
2023/09/27 11:05:47;;;;;;;2.47;1.33;;;;;;;32.03;31.42;99134.47;5034618;28;20659;-89
2023/09/27 11:08:19;;;;;;;3.85;1.23;;;;;;;32.33;31.20;99131.16;5034112;28;20195;-88
2023/09/27 11:10:45;;;;;;;4.22;1.67;;;;;;;32.61;32.17;99137.84;5034646;28;20178;-88
2023/09/27 11:13:12;;;;;;;9.02;2.05;;;;;;;32.62;31.16;99138.69;5034739;28;20244;-88
2023/09/27 11:15:39;;;;;;;7.65;2.00;;;;;;;32.27;31.48;99135.56;5034261;28;20186;-89
2023/09/27 11:18:07;;;;;;;6.55;1.30;;;;;;;32.25;31.84;99128.69;5034304;28;20182;-88
2023/09/27 11:20:33;;;;;;;4.95;2.00;;;;;;;32.40;31.25;99135.47;5033892;28;20267;-87
2023/09/27 11:22:59;;;;;;;4.63;1.90;;;;;;;32.35;31.48;99126.31;5034030;28;20611;-88
2023/09/27 11:25:26;;;;;;;4.38;1.63;;;;;;;32.51;31.19;99133.94;5034202;28;20182;-87
2023/09/27 11:27:52;;;;;;;7.38;1.65;;;;;;;32.46;31.43;99133.75;5034146;28;20285;-88
2023/09/27 11:30:26;;;;;;;4.63;1.50;;;;;;;32.20;31.50;99132.91;5016572;28;20344;-88